sensor_id;sensor_type;location;lat;lon;timestamp;P1;durP1;ratioP1;P2;durP2;ratioP2
27740;SDS011;15134;48.768;9.184;2023-06-10T00:01:58;8.97;;;7.20;;
27740;SDS011;15134;48.768;9.184;2023-06-10T00:06:53;10.98;;;6.18;;
27740;SDS011;15134;48.768;9.184;2023-06-10T00:09:19;9.10;;;6.17;;
27740;SDS011;15134;48.768;9.184;2023-06-10T00:11:51;7.90;;;6.30;;
27740;SDS011;15134;48.768;9.184;2023-06-10T00:14:17;11.10;;;6.93;;
27740;SDS011;15134;48.768;9.184;2023-06-10T00:19:13;8.43;;;5.97;;
27740;SDS011;15134;48.768;9.184;2023-06-10T00:21:40;8.23;;;6.50;;
27740;SDS011;15134;48.768;9.184;2023-06-10T00:24:06;9.07;;;6.43;;
27740;SDS011;15134;48.768;9.184;2023-06-10T00:26:39;9.23;;;6.50;;
27740;SDS011;15134;48.768;9.184;2023-06-10T00:29:06;8.15;;;6.20;;
27740;SDS011;15134;48.768;9.184;2023-06-10T00:31:33;8.98;;;6.57;;
27740;SDS011;15134;48.768;9.184;2023-06-10T00:34:03;10.25;;;6.72;;
27740;SDS011;15134;48.768;9.184;2023-06-10T00:36:30;9.18;;;6.47;;
27740;SDS011;15134;48.768;9.184;2023-06-10T00:38:56;8.02;;;5.97;;
27740;SDS011;15134;48.768;9.184;2023-06-10T00:41:25;9.18;;;6.70;;
27740;SDS011;15134;48.768;9.184;2023-06-10T00:43:51;8.68;;;6.60;;
27740;SDS011;15134;48.768;9.184;2023-06-10T00:46:17;9.13;;;6.80;;
27740;SDS011;15134;48.768;9.184;2023-06-10T00:48:49;11.43;;;6.55;;
27740;SDS011;15134;48.768;9.184;2023-06-10T00:51:21;9.35;;;6.68;;
27740;SDS011;15134;48.768;9.184;2023-06-10T00:53:51;7.65;;;5.95;;
27740;SDS011;15134;48.768;9.184;2023-06-10T00:56:18;9.30;;;6.82;;
27740;SDS011;15134;48.768;9.184;2023-06-10T00:58:48;9.68;;;6.70;;
27740;SDS011;15134;48.768;9.184;2023-06-10T01:01:14;12.50;;;6.72;;
27740;SDS011;15134;48.768;9.184;2023-06-10T01:03:39;9.25;;;6.78;;
27740;SDS011;15134;48.768;9.184;2023-06-10T01:06:28;8.87;;;6.40;;
27740;SDS011;15134;48.768;9.184;2023-06-10T01:11:58;8.80;;;6.40;;
27740;SDS011;15134;48.768;9.184;2023-06-10T01:14:28;9.27;;;7.13;;
27740;SDS011;15134;48.768;9.184;2023-06-10T01:16:57;9.27;;;6.90;;
27740;SDS011;15134;48.768;9.184;2023-06-10T01:21:49;8.38;;;6.35;;
27740;SDS011;15134;48.768;9.184;2023-06-10T01:24:17;8.10;;;6.25;;
27740;SDS011;15134;48.768;9.184;2023-06-10T01:26:47;7.75;;;6.40;;
27740;SDS011;15134;48.768;9.184;2023-06-10T01:29:19;9.05;;;6.10;;
27740;SDS011;15134;48.768;9.184;2023-06-10T01:31:59;10.73;;;6.53;;
27740;SDS011;15134;48.768;9.184;2023-06-10T01:34:32;11.00;;;7.85;;
27740;SDS011;15134;48.768;9.184;2023-06-10T01:36:59;10.50;;;6.75;;
27740;SDS011;15134;48.768;9.184;2023-06-10T01:39:27;9.82;;;7.05;;
27740;SDS011;15134;48.768;9.184;2023-06-10T01:41:53;8.75;;;6.72;;
27740;SDS011;15134;48.768;9.184;2023-06-10T01:44:29;10.00;;;6.47;;
27740;SDS011;15134;48.768;9.184;2023-06-10T01:46:55;10.13;;;7.10;;
27740;SDS011;15134;48.768;9.184;2023-06-10T01:49:26;8.40;;;6.15;;
27740;SDS011;15134;48.768;9.184;2023-06-10T01:51:53;7.68;;;5.53;;
27740;SDS011;15134;48.768;9.184;2023-06-10T01:54:25;8.10;;;6.10;;
27740;SDS011;15134;48.768;9.184;2023-06-10T01:56:51;7.63;;;6.10;;
27740;SDS011;15134;48.768;9.184;2023-06-10T01:59:17;8.02;;;6.18;;
27740;SDS011;15134;48.768;9.184;2023-06-10T02:01:42;9.60;;;6.10;;
27740;SDS011;15134;48.768;9.184;2023-06-10T02:04:09;10.02;;;5.90;;
27740;SDS011;15134;48.768;9.184;2023-06-10T02:06:35;7.90;;;5.90;;
27740;SDS011;15134;48.768;9.184;2023-06-10T02:09:02;8.23;;;6.45;;
27740;SDS011;15134;48.768;9.184;2023-06-10T02:11:28;8.95;;;6.22;;
27740;SDS011;15134;48.768;9.184;2023-06-10T02:13:54;7.35;;;5.75;;
27740;SDS011;15134;48.768;9.184;2023-06-10T02:16:20;7.53;;;5.87;;
27740;SDS011;15134;48.768;9.184;2023-06-10T02:18:46;7.75;;;6.45;;
27740;SDS011;15134;48.768;9.184;2023-06-10T02:21:12;7.87;;;6.03;;
27740;SDS011;15134;48.768;9.184;2023-06-10T02:23:37;9.63;;;6.03;;
27740;SDS011;15134;48.768;9.184;2023-06-10T02:26:03;8.77;;;5.50;;
27740;SDS011;15134;48.768;9.184;2023-06-10T02:28:35;9.75;;;6.32;;
27740;SDS011;15134;48.768;9.184;2023-06-10T02:31:04;7.83;;;5.63;;
27740;SDS011;15134;48.768;9.184;2023-06-10T02:33:29;8.95;;;5.90;;
27740;SDS011;15134;48.768;9.184;2023-06-10T02:35:55;8.43;;;6.50;;
27740;SDS011;15134;48.768;9.184;2023-06-10T02:38:23;7.53;;;5.90;;
27740;SDS011;15134;48.768;9.184;2023-06-10T02:43:17;8.52;;;6.60;;
27740;SDS011;15134;48.768;9.184;2023-06-10T02:45:43;8.50;;;6.07;;
27740;SDS011;15134;48.768;9.184;2023-06-10T02:48:09;9.13;;;7.03;;
27740;SDS011;15134;48.768;9.184;2023-06-10T02:50:35;8.20;;;6.07;;
27740;SDS011;15134;48.768;9.184;2023-06-10T02:53:15;9.43;;;6.18;;
27740;SDS011;15134;48.768;9.184;2023-06-10T02:55:45;9.02;;;6.20;;
27740;SDS011;15134;48.768;9.184;2023-06-10T02:58:13;9.57;;;6.13;;
27740;SDS011;15134;48.768;9.184;2023-06-10T03:00:40;9.20;;;6.40;;
27740;SDS011;15134;48.768;9.184;2023-06-10T03:03:08;8.13;;;5.85;;
27740;SDS011;15134;48.768;9.184;2023-06-10T03:05:43;7.75;;;5.75;;
27740;SDS011;15134;48.768;9.184;2023-06-10T03:08:09;7.50;;;5.50;;
27740;SDS011;15134;48.768;9.184;2023-06-10T03:10:37;9.32;;;6.32;;
27740;SDS011;15134;48.768;9.184;2023-06-10T03:13:03;8.75;;;5.68;;
27740;SDS011;15134;48.768;9.184;2023-06-10T03:18:00;7.43;;;5.63;;
27740;SDS011;15134;48.768;9.184;2023-06-10T03:20:27;6.93;;;5.70;;
27740;SDS011;15134;48.768;9.184;2023-06-10T03:22:53;7.43;;;5.47;;
27740;SDS011;15134;48.768;9.184;2023-06-10T03:25:19;6.95;;;5.15;;
27740;SDS011;15134;48.768;9.184;2023-06-10T03:27:49;8.98;;;6.07;;
27740;SDS011;15134;48.768;9.184;2023-06-10T03:30:15;12.85;;;9.15;;
27740;SDS011;15134;48.768;9.184;2023-06-10T03:32:44;29.83;;;20.25;;
27740;SDS011;15134;48.768;9.184;2023-06-10T03:35:17;30.60;;;19.25;;
27740;SDS011;15134;48.768;9.184;2023-06-10T03:37:44;14.48;;;9.63;;
27740;SDS011;15134;48.768;9.184;2023-06-10T03:40:10;15.82;;;9.98;;
27740;SDS011;15134;48.768;9.184;2023-06-10T03:42:39;13.23;;;9.07;;
27740;SDS011;15134;48.768;9.184;2023-06-10T03:45:06;12.68;;;8.45;;
27740;SDS011;15134;48.768;9.184;2023-06-10T03:47:34;12.05;;;7.22;;
27740;SDS011;15134;48.768;9.184;2023-06-10T03:50:02;10.43;;;7.30;;
27740;SDS011;15134;48.768;9.184;2023-06-10T03:52:30;9.90;;;7.00;;
27740;SDS011;15134;48.768;9.184;2023-06-10T03:54:56;10.25;;;6.90;;
27740;SDS011;15134;48.768;9.184;2023-06-10T03:57:21;8.95;;;6.57;;
27740;SDS011;15134;48.768;9.184;2023-06-10T03:59:47;10.23;;;7.00;;
27740;SDS011;15134;48.768;9.184;2023-06-10T04:02:13;9.97;;;7.40;;
27740;SDS011;15134;48.768;9.184;2023-06-10T04:04:39;9.03;;;6.43;;
27740;SDS011;15134;48.768;9.184;2023-06-10T04:07:04;8.73;;;6.33;;
27740;SDS011;15134;48.768;9.184;2023-06-10T04:09:30;7.80;;;6.17;;
27740;SDS011;15134;48.768;9.184;2023-06-10T04:11:57;7.88;;;6.03;;
27740;SDS011;15134;48.768;9.184;2023-06-10T04:16:50;8.35;;;5.93;;
27740;SDS011;15134;48.768;9.184;2023-06-10T04:19:17;8.55;;;6.40;;
27740;SDS011;15134;48.768;9.184;2023-06-10T04:21:43;11.88;;;7.00;;
27740;SDS011;15134;48.768;9.184;2023-06-10T04:24:09;7.75;;;6.18;;
27740;SDS011;15134;48.768;9.184;2023-06-10T04:26:35;8.90;;;6.13;;
27740;SDS011;15134;48.768;9.184;2023-06-10T04:29:04;9.57;;;6.63;;
27740;SDS011;15134;48.768;9.184;2023-06-10T04:31:30;12.75;;;8.43;;
27740;SDS011;15134;48.768;9.184;2023-06-10T04:33:57;9.50;;;7.13;;
27740;SDS011;15134;48.768;9.184;2023-06-10T04:36:24;7.65;;;6.00;;
27740;SDS011;15134;48.768;9.184;2023-06-10T04:38:50;9.40;;;6.82;;
27740;SDS011;15134;48.768;9.184;2023-06-10T04:41:18;8.20;;;6.00;;
27740;SDS011;15134;48.768;9.184;2023-06-10T04:43:44;7.90;;;5.75;;
27740;SDS011;15134;48.768;9.184;2023-06-10T04:46:10;9.40;;;6.15;;
27740;SDS011;15134;48.768;9.184;2023-06-10T04:48:38;9.55;;;7.07;;
27740;SDS011;15134;48.768;9.184;2023-06-10T04:51:05;8.83;;;6.03;;
27740;SDS011;15134;48.768;9.184;2023-06-10T04:53:31;8.35;;;6.32;;
27740;SDS011;15134;48.768;9.184;2023-06-10T04:55:57;7.03;;;5.30;;
27740;SDS011;15134;48.768;9.184;2023-06-10T04:58:23;8.70;;;5.43;;
27740;SDS011;15134;48.768;9.184;2023-06-10T05:00:49;6.90;;;5.50;;
27740;SDS011;15134;48.768;9.184;2023-06-10T05:03:15;9.60;;;6.28;;
27740;SDS011;15134;48.768;9.184;2023-06-10T05:05:41;8.93;;;5.53;;
27740;SDS011;15134;48.768;9.184;2023-06-10T05:08:09;8.23;;;5.60;;
27740;SDS011;15134;48.768;9.184;2023-06-10T05:10:35;8.20;;;5.60;;
27740;SDS011;15134;48.768;9.184;2023-06-10T05:13:01;7.13;;;5.43;;
27740;SDS011;15134;48.768;9.184;2023-06-10T05:15:28;7.28;;;5.90;;
27740;SDS011;15134;48.768;9.184;2023-06-10T05:17:56;9.95;;;5.60;;
27740;SDS011;15134;48.768;9.184;2023-06-10T05:20:23;8.45;;;5.40;;
27740;SDS011;15134;48.768;9.184;2023-06-10T05:22:50;7.00;;;5.03;;
27740;SDS011;15134;48.768;9.184;2023-06-10T05:25:16;7.43;;;4.68;;
27740;SDS011;15134;48.768;9.184;2023-06-10T05:27:42;10.02;;;5.55;;
27740;SDS011;15134;48.768;9.184;2023-06-10T05:30:08;10.75;;;6.07;;
27740;SDS011;15134;48.768;9.184;2023-06-10T05:32:35;6.97;;;5.45;;
27740;SDS011;15134;48.768;9.184;2023-06-10T05:35:01;7.88;;;5.40;;
27740;SDS011;15134;48.768;9.184;2023-06-10T05:37:28;7.43;;;5.00;;
27740;SDS011;15134;48.768;9.184;2023-06-10T05:39:54;8.82;;;5.55;;
27740;SDS011;15134;48.768;9.184;2023-06-10T05:42:20;7.05;;;5.32;;
27740;SDS011;15134;48.768;9.184;2023-06-10T05:44:46;7.57;;;5.33;;
27740;SDS011;15134;48.768;9.184;2023-06-10T05:47:11;8.13;;;5.60;;
27740;SDS011;15134;48.768;9.184;2023-06-10T05:49:37;7.50;;;5.20;;
27740;SDS011;15134;48.768;9.184;2023-06-10T05:52:03;7.45;;;4.63;;
27740;SDS011;15134;48.768;9.184;2023-06-10T05:54:29;6.07;;;4.75;;
27740;SDS011;15134;48.768;9.184;2023-06-10T05:56:55;6.00;;;4.25;;
27740;SDS011;15134;48.768;9.184;2023-06-10T05:59:20;6.47;;;4.80;;
27740;SDS011;15134;48.768;9.184;2023-06-10T06:01:50;6.15;;;4.63;;
27740;SDS011;15134;48.768;9.184;2023-06-10T06:04:18;7.03;;;4.95;;
27740;SDS011;15134;48.768;9.184;2023-06-10T06:06:44;8.45;;;5.07;;
27740;SDS011;15134;48.768;9.184;2023-06-10T06:09:10;8.95;;;7.00;;
27740;SDS011;15134;48.768;9.184;2023-06-10T06:11:36;10.70;;;7.10;;
27740;SDS011;15134;48.768;9.184;2023-06-10T06:14:02;9.60;;;6.60;;
27740;SDS011;15134;48.768;9.184;2023-06-10T06:16:30;8.30;;;6.00;;
27740;SDS011;15134;48.768;9.184;2023-06-10T06:18:56;8.20;;;6.60;;
27740;SDS011;15134;48.768;9.184;2023-06-10T06:21:31;8.63;;;5.10;;
27740;SDS011;15134;48.768;9.184;2023-06-10T06:23:56;6.85;;;5.22;;
27740;SDS011;15134;48.768;9.184;2023-06-10T06:26:23;6.57;;;4.85;;
27740;SDS011;15134;48.768;9.184;2023-06-10T06:28:48;7.18;;;4.78;;
27740;SDS011;15134;48.768;9.184;2023-06-10T06:31:14;7.38;;;4.25;;
27740;SDS011;15134;48.768;9.184;2023-06-10T06:36:06;6.53;;;4.07;;
27740;SDS011;15134;48.768;9.184;2023-06-10T06:40:58;7.13;;;4.35;;
27740;SDS011;15134;48.768;9.184;2023-06-10T06:43:29;7.18;;;4.40;;
27740;SDS011;15134;48.768;9.184;2023-06-10T06:46:14;7.97;;;4.22;;
27740;SDS011;15134;48.768;9.184;2023-06-10T06:48:40;5.22;;;3.90;;
27740;SDS011;15134;48.768;9.184;2023-06-10T06:51:06;6.68;;;4.15;;
27740;SDS011;15134;48.768;9.184;2023-06-10T06:53:32;7.35;;;4.38;;
27740;SDS011;15134;48.768;9.184;2023-06-10T06:56:00;4.85;;;3.60;;
27740;SDS011;15134;48.768;9.184;2023-06-10T06:58:26;4.80;;;3.63;;
27740;SDS011;15134;48.768;9.184;2023-06-10T07:00:51;5.53;;;4.18;;
27740;SDS011;15134;48.768;9.184;2023-06-10T07:03:17;5.28;;;4.00;;
27740;SDS011;15134;48.768;9.184;2023-06-10T07:05:45;4.80;;;3.67;;
27740;SDS011;15134;48.768;9.184;2023-06-10T07:08:11;5.70;;;4.53;;
27740;SDS011;15134;48.768;9.184;2023-06-10T07:10:37;9.13;;;6.70;;
27740;SDS011;15134;48.768;9.184;2023-06-10T07:13:03;5.40;;;4.22;;
27740;SDS011;15134;48.768;9.184;2023-06-10T07:15:29;7.22;;;6.10;;
27740;SDS011;15134;48.768;9.184;2023-06-10T07:17:54;5.22;;;3.70;;
27740;SDS011;15134;48.768;9.184;2023-06-10T07:20:20;7.20;;;5.95;;
27740;SDS011;15134;48.768;9.184;2023-06-10T07:22:46;6.32;;;4.07;;
27740;SDS011;15134;48.768;9.184;2023-06-10T07:25:12;5.40;;;3.63;;
27740;SDS011;15134;48.768;9.184;2023-06-10T07:27:38;4.85;;;3.80;;
27740;SDS011;15134;48.768;9.184;2023-06-10T07:30:04;7.40;;;6.35;;
27740;SDS011;15134;48.768;9.184;2023-06-10T07:32:37;6.95;;;3.97;;
27740;SDS011;15134;48.768;9.184;2023-06-10T07:35:02;6.43;;;4.07;;
27740;SDS011;15134;48.768;9.184;2023-06-10T07:37:28;5.93;;;4.30;;
27740;SDS011;15134;48.768;9.184;2023-06-10T07:39:54;4.72;;;3.80;;
27740;SDS011;15134;48.768;9.184;2023-06-10T07:42:21;5.80;;;4.32;;
27740;SDS011;15134;48.768;9.184;2023-06-10T07:44:47;7.40;;;5.25;;
27740;SDS011;15134;48.768;9.184;2023-06-10T07:47:19;5.72;;;4.57;;
27740;SDS011;15134;48.768;9.184;2023-06-10T07:49:45;8.65;;;6.38;;
27740;SDS011;15134;48.768;9.184;2023-06-10T07:52:12;7.75;;;6.43;;
27740;SDS011;15134;48.768;9.184;2023-06-10T07:54:37;6.03;;;4.78;;
27740;SDS011;15134;48.768;9.184;2023-06-10T07:57:03;8.50;;;6.20;;
27740;SDS011;15134;48.768;9.184;2023-06-10T07:59:29;8.63;;;6.25;;
27740;SDS011;15134;48.768;9.184;2023-06-10T08:01:56;4.80;;;3.83;;
27740;SDS011;15134;48.768;9.184;2023-06-10T08:04:24;6.38;;;4.00;;
27740;SDS011;15134;48.768;9.184;2023-06-10T08:06:50;5.15;;;3.90;;
27740;SDS011;15134;48.768;9.184;2023-06-10T08:09:16;7.68;;;5.25;;
27740;SDS011;15134;48.768;9.184;2023-06-10T08:11:43;6.03;;;4.10;;
27740;SDS011;15134;48.768;9.184;2023-06-10T08:14:13;7.75;;;4.97;;
27740;SDS011;15134;48.768;9.184;2023-06-10T08:16:38;6.47;;;4.38;;
27740;SDS011;15134;48.768;9.184;2023-06-10T08:19:10;6.50;;;4.78;;
27740;SDS011;15134;48.768;9.184;2023-06-10T08:21:36;4.93;;;4.13;;
27740;SDS011;15134;48.768;9.184;2023-06-10T08:24:02;5.45;;;3.88;;
27740;SDS011;15134;48.768;9.184;2023-06-10T08:26:28;9.48;;;8.20;;
27740;SDS011;15134;48.768;9.184;2023-06-10T08:28:55;6.95;;;5.72;;
27740;SDS011;15134;48.768;9.184;2023-06-10T08:31:21;7.65;;;6.18;;
27740;SDS011;15134;48.768;9.184;2023-06-10T08:33:47;8.82;;;4.82;;
27740;SDS011;15134;48.768;9.184;2023-06-10T08:36:13;6.05;;;4.57;;
27740;SDS011;15134;48.768;9.184;2023-06-10T08:38:40;5.50;;;3.97;;
27740;SDS011;15134;48.768;9.184;2023-06-10T08:41:06;5.47;;;4.50;;
27740;SDS011;15134;48.768;9.184;2023-06-10T08:43:45;4.03;;;3.00;;
27740;SDS011;15134;48.768;9.184;2023-06-10T08:46:34;5.38;;;3.50;;
27740;SDS011;15134;48.768;9.184;2023-06-10T08:49:03;6.28;;;4.72;;
27740;SDS011;15134;48.768;9.184;2023-06-10T08:51:32;4.15;;;2.75;;
27740;SDS011;15134;48.768;9.184;2023-06-10T08:54:02;8.77;;;7.70;;
27740;SDS011;15134;48.768;9.184;2023-06-10T08:56:37;3.50;;;2.28;;
27740;SDS011;15134;48.768;9.184;2023-06-10T08:59:05;7.13;;;3.17;;
27740;SDS011;15134;48.768;9.184;2023-06-10T09:01:31;7.60;;;6.05;;
27740;SDS011;15134;48.768;9.184;2023-06-10T09:03:58;5.25;;;3.95;;
27740;SDS011;15134;48.768;9.184;2023-06-10T09:06:24;6.28;;;3.78;;
27740;SDS011;15134;48.768;9.184;2023-06-10T09:08:51;7.40;;;4.32;;
27740;SDS011;15134;48.768;9.184;2023-06-10T09:11:19;8.13;;;5.78;;
27740;SDS011;15134;48.768;9.184;2023-06-10T09:13:47;8.40;;;4.38;;
27740;SDS011;15134;48.768;9.184;2023-06-10T09:16:16;8.27;;;5.20;;
27740;SDS011;15134;48.768;9.184;2023-06-10T09:18:42;5.25;;;3.38;;
27740;SDS011;15134;48.768;9.184;2023-06-10T09:21:10;5.82;;;4.00;;
27740;SDS011;15134;48.768;9.184;2023-06-10T09:23:36;6.72;;;5.55;;
27740;SDS011;15134;48.768;9.184;2023-06-10T09:26:08;8.00;;;6.10;;
27740;SDS011;15134;48.768;9.184;2023-06-10T09:28:35;6.75;;;4.47;;
27740;SDS011;15134;48.768;9.184;2023-06-10T09:31:06;4.97;;;3.33;;
27740;SDS011;15134;48.768;9.184;2023-06-10T09:33:32;7.93;;;5.25;;
27740;SDS011;15134;48.768;9.184;2023-06-10T09:36:01;8.40;;;4.57;;
27740;SDS011;15134;48.768;9.184;2023-06-10T09:38:32;6.13;;;4.45;;
27740;SDS011;15134;48.768;9.184;2023-06-10T09:40:59;4.85;;;3.38;;
27740;SDS011;15134;48.768;9.184;2023-06-10T09:43:39;7.47;;;5.10;;
27740;SDS011;15134;48.768;9.184;2023-06-10T09:46:14;6.93;;;3.97;;
27740;SDS011;15134;48.768;9.184;2023-06-10T09:48:45;10.65;;;6.75;;
27740;SDS011;15134;48.768;9.184;2023-06-10T09:51:12;4.55;;;3.22;;
27740;SDS011;15134;48.768;9.184;2023-06-10T09:53:39;6.43;;;4.45;;
27740;SDS011;15134;48.768;9.184;2023-06-10T09:56:05;6.95;;;4.30;;
27740;SDS011;15134;48.768;9.184;2023-06-10T09:58:37;7.85;;;5.30;;
27740;SDS011;15134;48.768;9.184;2023-06-10T10:01:11;10.75;;;6.10;;
27740;SDS011;15134;48.768;9.184;2023-06-10T10:03:43;10.38;;;6.93;;
27740;SDS011;15134;48.768;9.184;2023-06-10T10:06:15;9.18;;;6.30;;
27740;SDS011;15134;48.768;9.184;2023-06-10T10:08:46;6.82;;;5.68;;
27740;SDS011;15134;48.768;9.184;2023-06-10T10:11:12;7.55;;;5.43;;
27740;SDS011;15134;48.768;9.184;2023-06-10T10:13:45;8.43;;;5.38;;
27740;SDS011;15134;48.768;9.184;2023-06-10T10:16:14;9.38;;;6.68;;
27740;SDS011;15134;48.768;9.184;2023-06-10T10:18:46;8.85;;;6.30;;
27740;SDS011;15134;48.768;9.184;2023-06-10T10:21:20;8.32;;;5.55;;
27740;SDS011;15134;48.768;9.184;2023-06-10T10:24:16;13.77;;;5.72;;
27740;SDS011;15134;48.768;9.184;2023-06-10T10:26:42;8.98;;;6.30;;
27740;SDS011;15134;48.768;9.184;2023-06-10T10:29:14;9.73;;;5.50;;
27740;SDS011;15134;48.768;9.184;2023-06-10T10:31:46;10.60;;;7.40;;
27740;SDS011;15134;48.768;9.184;2023-06-10T10:34:26;8.27;;;5.60;;
27740;SDS011;15134;48.768;9.184;2023-06-10T10:37:00;6.18;;;4.28;;
27740;SDS011;15134;48.768;9.184;2023-06-10T10:39:26;9.57;;;6.97;;
27740;SDS011;15134;48.768;9.184;2023-06-10T10:41:53;8.05;;;5.60;;
27740;SDS011;15134;48.768;9.184;2023-06-10T10:44:20;8.60;;;5.82;;
27740;SDS011;15134;48.768;9.184;2023-06-10T10:46:51;7.63;;;5.03;;
27740;SDS011;15134;48.768;9.184;2023-06-10T10:49:20;7.32;;;5.20;;
27740;SDS011;15134;48.768;9.184;2023-06-10T10:51:54;7.63;;;5.10;;
27740;SDS011;15134;48.768;9.184;2023-06-10T10:57:36;7.10;;;4.57;;
27740;SDS011;15134;48.768;9.184;2023-06-10T10:59:56;6.93;;;5.18;;
27740;SDS011;15134;48.768;9.184;2023-06-10T11:05:15;7.03;;;4.63;;
27740;SDS011;15134;48.768;9.184;2023-06-10T11:07:51;7.15;;;4.80;;
27740;SDS011;15134;48.768;9.184;2023-06-10T11:10:28;10.00;;;5.18;;
27740;SDS011;15134;48.768;9.184;2023-06-10T11:12:58;7.55;;;4.95;;
27740;SDS011;15134;48.768;9.184;2023-06-10T11:15:29;8.48;;;4.55;;
27740;SDS011;15134;48.768;9.184;2023-06-10T11:20:57;11.07;;;6.60;;
27740;SDS011;15134;48.768;9.184;2023-06-10T11:23:25;7.47;;;4.80;;
27740;SDS011;15134;48.768;9.184;2023-06-10T11:29:10;6.40;;;4.95;;
27740;SDS011;15134;48.768;9.184;2023-06-10T11:31:50;8.45;;;5.88;;
27740;SDS011;15134;48.768;9.184;2023-06-10T11:34:23;7.53;;;6.25;;
27740;SDS011;15134;48.768;9.184;2023-06-10T11:36:50;6.88;;;5.20;;
27740;SDS011;15134;48.768;9.184;2023-06-10T11:39:16;6.75;;;5.38;;
27740;SDS011;15134;48.768;9.184;2023-06-10T11:41:43;7.45;;;5.28;;
27740;SDS011;15134;48.768;9.184;2023-06-10T11:44:13;9.57;;;5.03;;
27740;SDS011;15134;48.768;9.184;2023-06-10T11:46:47;7.70;;;4.72;;
27740;SDS011;15134;48.768;9.184;2023-06-10T11:49:13;8.93;;;5.90;;
27740;SDS011;15134;48.768;9.184;2023-06-10T11:51:40;10.23;;;6.60;;
27740;SDS011;15134;48.768;9.184;2023-06-10T11:54:13;7.95;;;5.35;;
27740;SDS011;15134;48.768;9.184;2023-06-10T11:56:43;11.52;;;8.23;;
27740;SDS011;15134;48.768;9.184;2023-06-10T11:59:12;6.80;;;5.25;;
27740;SDS011;15134;48.768;9.184;2023-06-10T12:01:44;6.15;;;4.78;;
27740;SDS011;15134;48.768;9.184;2023-06-10T12:04:15;5.85;;;4.75;;
27740;SDS011;15134;48.768;9.184;2023-06-10T12:06:42;5.90;;;4.90;;
27740;SDS011;15134;48.768;9.184;2023-06-10T12:09:28;10.32;;;5.28;;
27740;SDS011;15134;48.768;9.184;2023-06-10T12:12:01;8.25;;;5.78;;
27740;SDS011;15134;48.768;9.184;2023-06-10T12:17:22;9.77;;;6.60;;
27740;SDS011;15134;48.768;9.184;2023-06-10T12:20:00;7.40;;;4.90;;
27740;SDS011;15134;48.768;9.184;2023-06-10T12:22:42;8.55;;;5.13;;
27740;SDS011;15134;48.768;9.184;2023-06-10T12:25:14;10.70;;;6.68;;
27740;SDS011;15134;48.768;9.184;2023-06-10T12:27:49;10.75;;;7.47;;
27740;SDS011;15134;48.768;9.184;2023-06-10T12:30:23;6.82;;;5.32;;
27740;SDS011;15134;48.768;9.184;2023-06-10T12:32:54;6.68;;;5.10;;
27740;SDS011;15134;48.768;9.184;2023-06-10T12:35:27;6.32;;;4.40;;
27740;SDS011;15134;48.768;9.184;2023-06-10T12:40:42;5.63;;;4.05;;
27740;SDS011;15134;48.768;9.184;2023-06-10T12:43:08;10.50;;;7.15;;
27740;SDS011;15134;48.768;9.184;2023-06-10T12:45:36;8.75;;;6.68;;
27740;SDS011;15134;48.768;9.184;2023-06-10T12:48:11;7.20;;;4.47;;
27740;SDS011;15134;48.768;9.184;2023-06-10T12:50:43;7.68;;;6.22;;
27740;SDS011;15134;48.768;9.184;2023-06-10T12:53:10;6.93;;;4.40;;
27740;SDS011;15134;48.768;9.184;2023-06-10T12:55:36;6.15;;;4.70;;
27740;SDS011;15134;48.768;9.184;2023-06-10T12:58:03;6.63;;;4.70;;
27740;SDS011;15134;48.768;9.184;2023-06-10T13:00:30;7.28;;;5.22;;
27740;SDS011;15134;48.768;9.184;2023-06-10T13:03:02;8.07;;;4.60;;
27740;SDS011;15134;48.768;9.184;2023-06-10T13:05:30;5.15;;;4.35;;
27740;SDS011;15134;48.768;9.184;2023-06-10T13:07:57;6.13;;;4.35;;
27740;SDS011;15134;48.768;9.184;2023-06-10T13:12:50;7.20;;;4.65;;
27740;SDS011;15134;48.768;9.184;2023-06-10T13:15:16;5.28;;;3.85;;
27740;SDS011;15134;48.768;9.184;2023-06-10T13:17:48;5.97;;;3.80;;
27740;SDS011;15134;48.768;9.184;2023-06-10T13:20:22;5.53;;;3.83;;
27740;SDS011;15134;48.768;9.184;2023-06-10T13:22:48;7.07;;;5.00;;
27740;SDS011;15134;48.768;9.184;2023-06-10T13:25:14;7.95;;;4.70;;
27740;SDS011;15134;48.768;9.184;2023-06-10T13:27:40;6.57;;;4.50;;
27740;SDS011;15134;48.768;9.184;2023-06-10T13:30:09;7.00;;;5.05;;
27740;SDS011;15134;48.768;9.184;2023-06-10T13:32:36;8.38;;;4.90;;
27740;SDS011;15134;48.768;9.184;2023-06-10T13:35:05;5.70;;;4.07;;
27740;SDS011;15134;48.768;9.184;2023-06-10T13:37:32;5.47;;;4.00;;
27740;SDS011;15134;48.768;9.184;2023-06-10T13:40:02;5.22;;;4.15;;
27740;SDS011;15134;48.768;9.184;2023-06-10T13:42:28;5.82;;;3.58;;
27740;SDS011;15134;48.768;9.184;2023-06-10T13:44:57;7.78;;;4.32;;
27740;SDS011;15134;48.768;9.184;2023-06-10T13:47:23;5.18;;;3.70;;
27740;SDS011;15134;48.768;9.184;2023-06-10T13:49:49;5.60;;;3.83;;
27740;SDS011;15134;48.768;9.184;2023-06-10T13:52:15;6.90;;;4.40;;
27740;SDS011;15134;48.768;9.184;2023-06-10T13:54:41;5.35;;;3.92;;
27740;SDS011;15134;48.768;9.184;2023-06-10T13:57:09;5.93;;;3.92;;
27740;SDS011;15134;48.768;9.184;2023-06-10T13:59:35;6.10;;;3.80;;
27740;SDS011;15134;48.768;9.184;2023-06-10T14:02:01;8.02;;;4.60;;
27740;SDS011;15134;48.768;9.184;2023-06-10T14:04:27;6.68;;;3.92;;
27740;SDS011;15134;48.768;9.184;2023-06-10T14:06:59;9.10;;;6.78;;
27740;SDS011;15134;48.768;9.184;2023-06-10T14:09:25;7.15;;;5.10;;
27740;SDS011;15134;48.768;9.184;2023-06-10T14:11:50;6.93;;;4.72;;
27740;SDS011;15134;48.768;9.184;2023-06-10T14:16:44;11.05;;;7.10;;
27740;SDS011;15134;48.768;9.184;2023-06-10T14:19:10;8.23;;;5.10;;
27740;SDS011;15134;48.768;9.184;2023-06-10T14:21:36;6.45;;;4.57;;
27740;SDS011;15134;48.768;9.184;2023-06-10T14:24:01;8.68;;;5.32;;
27740;SDS011;15134;48.768;9.184;2023-06-10T14:26:27;5.38;;;3.80;;
27740;SDS011;15134;48.768;9.184;2023-06-10T14:28:53;7.15;;;4.32;;
27740;SDS011;15134;48.768;9.184;2023-06-10T14:31:20;7.22;;;5.05;;
27740;SDS011;15134;48.768;9.184;2023-06-10T14:33:46;6.45;;;4.95;;
27740;SDS011;15134;48.768;9.184;2023-06-10T14:36:12;9.00;;;7.30;;
27740;SDS011;15134;48.768;9.184;2023-06-10T14:38:38;5.00;;;3.88;;
27740;SDS011;15134;48.768;9.184;2023-06-10T14:41:03;5.78;;;4.35;;
27740;SDS011;15134;48.768;9.184;2023-06-10T14:43:29;5.70;;;4.10;;
27740;SDS011;15134;48.768;9.184;2023-06-10T14:45:55;5.78;;;4.07;;
27740;SDS011;15134;48.768;9.184;2023-06-10T14:48:21;6.25;;;4.65;;
27740;SDS011;15134;48.768;9.184;2023-06-10T14:50:50;8.23;;;5.68;;
27740;SDS011;15134;48.768;9.184;2023-06-10T14:53:16;8.45;;;5.38;;
27740;SDS011;15134;48.768;9.184;2023-06-10T14:55:43;6.72;;;4.28;;
27740;SDS011;15134;48.768;9.184;2023-06-10T14:58:08;6.30;;;5.07;;
27740;SDS011;15134;48.768;9.184;2023-06-10T15:03:00;5.97;;;3.97;;
27740;SDS011;15134;48.768;9.184;2023-06-10T15:05:26;6.72;;;4.28;;
27740;SDS011;15134;48.768;9.184;2023-06-10T15:07:52;7.25;;;4.05;;
27740;SDS011;15134;48.768;9.184;2023-06-10T15:10:17;6.13;;;4.95;;
27740;SDS011;15134;48.768;9.184;2023-06-10T15:12:45;6.25;;;4.68;;
27740;SDS011;15134;48.768;9.184;2023-06-10T15:15:11;5.55;;;4.25;;
27740;SDS011;15134;48.768;9.184;2023-06-10T15:17:36;5.78;;;4.72;;
27740;SDS011;15134;48.768;9.184;2023-06-10T15:20:02;6.45;;;4.57;;
27740;SDS011;15134;48.768;9.184;2023-06-10T15:22:29;6.97;;;5.10;;
27740;SDS011;15134;48.768;9.184;2023-06-10T15:24:56;6.45;;;4.72;;
27740;SDS011;15134;48.768;9.184;2023-06-10T15:27:22;6.32;;;5.22;;
27740;SDS011;15134;48.768;9.184;2023-06-10T15:29:48;6.45;;;5.13;;
27740;SDS011;15134;48.768;9.184;2023-06-10T15:32:14;6.85;;;5.00;;
27740;SDS011;15134;48.768;9.184;2023-06-10T15:34:40;6.00;;;4.80;;
27740;SDS011;15134;48.768;9.184;2023-06-10T15:37:08;7.75;;;6.00;;
27740;SDS011;15134;48.768;9.184;2023-06-10T15:39:34;6.65;;;4.40;;